ADDS TAF Board (Experimental) INFO Settings

IDs: Format: Expanded Condensed

KLAX - Los Angeles Intl, CA, US

Issued at 1657 UTC 29 Mar 2015
Updated at: 1720 UTC 29 Mar 2015
Time1653Z 29/18Z 29/19Z 29/20Z 29/21Z 29/22Z 29/23Z 30/00Z 30/01Z 30/02Z 30/03Z 30/04Z 30/05Z 30/06Z
Type OBS PRVL PRVL PRVL PRVL PRVL PRVL PRVL PRVL PRVL PRVL PRVL PRVL PRVL
VIS 4 5 5 >6 >6 >6 >6 >6 >6 >6 >6 >6 >6 >6
CIG 270 250 250 -- -- -- -- -- -- -- -- -- -- --
Cover BKN BKN BKN SCT SCT SCT SCT SCT SCT SCT SCT SCT SCT SCT
FltCat MVFR MVFR MVFR VFR VFR VFR VFR VFR VFR VFR VFR VFR VFR VFR
WX HZ HZ HZ -- -- -- -- -- -- -- -- -- -- --
WDir VRB 180 180 250 250 250 250 250 250 250 250 VRB VRB VRB
WSpd 0 6 6 10 10 10 10 10 10 10 10 5 5 5
WGst -- -- -- -- -- -- -- -- -- -- -- -- -- --
R06/24
XWnd VRB -6 -6 -2 -2 -2 -2 -2 -2 -2 -2 VRB VRB VRB
HWnd VRB -1 -1 -10 -10 -10 -10 -10 -10 -10 -10 VRB VRB VRB
R07/25
XWnd VRB -6 -6 -2 -2 -2 -2 -2 -2 -2 -2 VRB VRB VRB
HWnd VRB -1 -1 -10 -10 -10 -10 -10 -10 -10 -10 VRB VRB VRB

NOTE: TEMPO conditions in [brackets]. Keep in mind TEMPO conditions might be better (lower impact) than prevailing conditions.

Raw TAF
KLAX 291657Z 2917/3018 00000KT 4SM HZ FEW008 BKN250
  FM291800 18006KT 5SM HZ SCT005 BKN250
  FM292000 25010KT P6SM SCT250
  FM300400 VRB05KT P6SM SCT250
  FM300700 VRB05KT 6SM BR SCT006
  FM301000 VRB05KT 2SM BR BKN002
  FM301700 VRB03KT 4SM BR BKN250


Raw METAR
KLAX 291653Z 00000KT 4SM HZ FEW008 SCT180 BKN270 17/14 A3006 RMK AO2 SLP179 T01720139
KLAX 291628Z 14006KT 3SM BR SCT007 SCT180 BKN270 16/14 A3005 RMK AO2
KLAX 291611Z 07003KT 2SM BR BKN005 BKN180 OVC270 15/14 A3006 RMK AO2
KLAX 291553Z 11008KT 1 1/2SM BR OVC003 14/14 A3005 RMK AO2 SLP176 T01440144
KLAX 291540Z 08007KT 1SM R25R/P6000FT BR OVC003 14/14 A3005 RMK AO2
KLAX 291453Z 05006KT 1/2SM R25R/3500VP6000FT FG OVC002 14/14 A3006 RMK AO2 SLP178 T01390139 51006

METAR Board
Radar Display
Forecast Discussion

TAF Board Legend

Potential Impact
Threat None Slight Moderate High
Visibility (sm) ≥5.1 5.1>X≥3 3>X≥1 <1
Ceiling (100 ft) ≥30.1 30.1>X≥10 10>X≥5 <5
Wind Speed (kt) <10 10≤X<20 20≤X<30 ≥30
Wind Gust (kt) <15 15≤X<25 25≤X<35 ≥35
Weather No Wx Reported VCTS,-TS,-FZRA,SN TS,FZRA +TS,+FZRA,+SN